sensor_id;sensor_type;location;lat;lon;timestamp;P1;durP1;ratioP1;P2;durP2;ratioP2
40471;SDS011;26174;42.908;23.800;2023-03-15T00:00:02;2.20;;;1.67;;
40471;SDS011;26174;42.908;23.800;2023-03-15T00:02:30;3.95;;;2.38;;
40471;SDS011;26174;42.908;23.800;2023-03-15T00:04:55;4.82;;;2.08;;
40471;SDS011;26174;42.908;23.800;2023-03-15T00:07:21;3.55;;;2.08;;
40471;SDS011;26174;42.908;23.800;2023-03-15T00:09:50;7.25;;;3.22;;
40471;SDS011;26174;42.908;23.800;2023-03-15T00:12:17;4.85;;;2.30;;
40471;SDS011;26174;42.908;23.800;2023-03-15T00:14:42;8.70;;;2.95;;
40471;SDS011;26174;42.908;23.800;2023-03-15T00:17:08;2.22;;;1.38;;
40471;SDS011;26174;42.908;23.800;2023-03-15T00:19:33;4.32;;;2.00;;
40471;SDS011;26174;42.908;23.800;2023-03-15T00:21:59;4.20;;;1.98;;
40471;SDS011;26174;42.908;23.800;2023-03-15T00:24:25;5.78;;;2.60;;
40471;SDS011;26174;42.908;23.800;2023-03-15T00:26:50;3.20;;;1.77;;
40471;SDS011;26174;42.908;23.800;2023-03-15T00:29:17;2.58;;;1.45;;
40471;SDS011;26174;42.908;23.800;2023-03-15T00:31:42;2.72;;;2.13;;
40471;SDS011;26174;42.908;23.800;2023-03-15T00:34:08;4.75;;;2.25;;
40471;SDS011;26174;42.908;23.800;2023-03-15T00:36:33;3.00;;;1.60;;
40471;SDS011;26174;42.908;23.800;2023-03-15T00:38:59;1.45;;;1.10;;
40471;SDS011;26174;42.908;23.800;2023-03-15T00:41:25;9.57;;;2.00;;
40471;SDS011;26174;42.908;23.800;2023-03-15T00:43:50;3.28;;;1.88;;
40471;SDS011;26174;42.908;23.800;2023-03-15T00:46:16;3.80;;;1.95;;
40471;SDS011;26174;42.908;23.800;2023-03-15T00:48:42;3.45;;;1.70;;
40471;SDS011;26174;42.908;23.800;2023-03-15T00:51:12;5.80;;;2.20;;
40471;SDS011;26174;42.908;23.800;2023-03-15T00:53:40;6.30;;;2.10;;
40471;SDS011;26174;42.908;23.800;2023-03-15T00:56:17;3.83;;;1.98;;
40471;SDS011;26174;42.908;23.800;2023-03-15T00:58:45;3.22;;;1.67;;
40471;SDS011;26174;42.908;23.800;2023-03-15T01:01:15;6.57;;;1.92;;
40471;SDS011;26174;42.908;23.800;2023-03-15T01:03:42;8.02;;;1.67;;
40471;SDS011;26174;42.908;23.800;2023-03-15T01:06:08;4.65;;;2.13;;
40471;SDS011;26174;42.908;23.800;2023-03-15T01:08:35;3.47;;;1.70;;
40471;SDS011;26174;42.908;23.800;2023-03-15T01:11:05;3.30;;;1.95;;
40471;SDS011;26174;42.908;23.800;2023-03-15T01:13:32;3.85;;;1.65;;
40471;SDS011;26174;42.908;23.800;2023-03-15T01:15:58;3.05;;;1.73;;
40471;SDS011;26174;42.908;23.800;2023-03-15T01:18:23;3.20;;;2.08;;
40471;SDS011;26174;42.908;23.800;2023-03-15T01:20:49;3.05;;;1.85;;
40471;SDS011;26174;42.908;23.800;2023-03-15T01:23:15;4.00;;;1.90;;
40471;SDS011;26174;42.908;23.800;2023-03-15T01:25:41;3.13;;;1.98;;
40471;SDS011;26174;42.908;23.800;2023-03-15T01:28:06;4.85;;;2.00;;
40471;SDS011;26174;42.908;23.800;2023-03-15T01:30:32;6.25;;;2.30;;
40471;SDS011;26174;42.908;23.800;2023-03-15T01:32:57;3.90;;;2.00;;
40471;SDS011;26174;42.908;23.800;2023-03-15T01:35:23;4.25;;;2.15;;
40471;SDS011;26174;42.908;23.800;2023-03-15T01:37:49;3.83;;;1.45;;
40471;SDS011;26174;42.908;23.800;2023-03-15T01:40:15;4.25;;;2.20;;
40471;SDS011;26174;42.908;23.800;2023-03-15T01:48:39;4.75;;;2.17;;
40471;SDS011;26174;42.908;23.800;2023-03-15T01:51:54;4.68;;;2.17;;
40471;SDS011;26174;42.908;23.800;2023-03-15T01:56:33;4.55;;;2.15;;
40471;SDS011;26174;42.908;23.800;2023-03-15T01:59:00;2.65;;;1.98;;
40471;SDS011;26174;42.908;23.800;2023-03-15T02:01:27;3.35;;;1.88;;
40471;SDS011;26174;42.908;23.800;2023-03-15T02:04:00;9.25;;;2.33;;
40471;SDS011;26174;42.908;23.800;2023-03-15T02:06:28;3.63;;;2.05;;
40471;SDS011;26174;42.908;23.800;2023-03-15T02:08:59;4.60;;;2.50;;
40471;SDS011;26174;42.908;23.800;2023-03-15T02:11:28;3.85;;;2.10;;
40471;SDS011;26174;42.908;23.800;2023-03-15T02:13:53;4.47;;;2.30;;
40471;SDS011;26174;42.908;23.800;2023-03-15T02:16:19;3.92;;;2.80;;
40471;SDS011;26174;42.908;23.800;2023-03-15T02:18:46;2.38;;;1.80;;
40471;SDS011;26174;42.908;23.800;2023-03-15T02:21:22;7.57;;;2.58;;
40471;SDS011;26174;42.908;23.800;2023-03-15T02:26:58;5.35;;;2.42;;
40471;SDS011;26174;42.908;23.800;2023-03-15T02:29:24;4.07;;;2.35;;
40471;SDS011;26174;42.908;23.800;2023-03-15T02:31:51;4.88;;;2.30;;
40471;SDS011;26174;42.908;23.800;2023-03-15T02:34:17;6.38;;;3.25;;
40471;SDS011;26174;42.908;23.800;2023-03-15T02:36:43;7.07;;;3.38;;
40471;SDS011;26174;42.908;23.800;2023-03-15T02:39:15;8.48;;;3.38;;
40471;SDS011;26174;42.908;23.800;2023-03-15T02:41:44;6.43;;;3.20;;
40471;SDS011;26174;42.908;23.800;2023-03-15T02:44:22;7.57;;;3.17;;
40471;SDS011;26174;42.908;23.800;2023-03-15T02:46:51;4.45;;;2.47;;
40471;SDS011;26174;42.908;23.800;2023-03-15T02:49:38;5.95;;;3.13;;
40471;SDS011;26174;42.908;23.800;2023-03-15T02:52:05;6.40;;;3.22;;
40471;SDS011;26174;42.908;23.800;2023-03-15T02:54:31;5.55;;;3.08;;
40471;SDS011;26174;42.908;23.800;2023-03-15T02:56:58;6.57;;;2.78;;
40471;SDS011;26174;42.908;23.800;2023-03-15T02:59:25;6.35;;;3.03;;
40471;SDS011;26174;42.908;23.800;2023-03-15T03:01:51;4.07;;;2.47;;
40471;SDS011;26174;42.908;23.800;2023-03-15T03:04:16;6.25;;;2.20;;
40471;SDS011;26174;42.908;23.800;2023-03-15T03:06:42;5.28;;;2.13;;
40471;SDS011;26174;42.908;23.800;2023-03-15T03:09:08;5.57;;;2.60;;
40471;SDS011;26174;42.908;23.800;2023-03-15T03:11:35;3.97;;;2.45;;
40471;SDS011;26174;42.908;23.800;2023-03-15T03:14:00;4.13;;;1.90;;
40471;SDS011;26174;42.908;23.800;2023-03-15T03:16:26;8.68;;;2.30;;
40471;SDS011;26174;42.908;23.800;2023-03-15T03:18:51;3.67;;;1.90;;
40471;SDS011;26174;42.908;23.800;2023-03-15T03:24:54;4.15;;;2.25;;
40471;SDS011;26174;42.908;23.800;2023-03-15T03:27:19;6.05;;;2.20;;
40471;SDS011;26174;42.908;23.800;2023-03-15T03:29:45;4.10;;;2.25;;
40471;SDS011;26174;42.908;23.800;2023-03-15T03:32:11;3.80;;;2.40;;
40471;SDS011;26174;42.908;23.800;2023-03-15T03:34:36;8.48;;;2.35;;
40471;SDS011;26174;42.908;23.800;2023-03-15T03:37:02;4.90;;;2.25;;
40471;SDS011;26174;42.908;23.800;2023-03-15T03:39:28;3.90;;;2.00;;
40471;SDS011;26174;42.908;23.800;2023-03-15T03:41:53;2.90;;;1.58;;
40471;SDS011;26174;42.908;23.800;2023-03-15T03:44:19;2.90;;;1.60;;
40471;SDS011;26174;42.908;23.800;2023-03-15T03:46:44;3.08;;;2.00;;
40471;SDS011;26174;42.908;23.800;2023-03-15T03:49:10;4.18;;;2.05;;
40471;SDS011;26174;42.908;23.800;2023-03-15T03:51:35;3.30;;;2.00;;
40471;SDS011;26174;42.908;23.800;2023-03-15T03:54:02;3.90;;;2.17;;
40471;SDS011;26174;42.908;23.800;2023-03-15T03:56:28;3.00;;;2.15;;
40471;SDS011;26174;42.908;23.800;2023-03-15T03:58:54;3.85;;;2.25;;
40471;SDS011;26174;42.908;23.800;2023-03-15T04:01:19;3.92;;;2.30;;
40471;SDS011;26174;42.908;23.800;2023-03-15T04:03:46;4.45;;;2.38;;
40471;SDS011;26174;42.908;23.800;2023-03-15T04:06:12;4.38;;;2.38;;
40471;SDS011;26174;42.908;23.800;2023-03-15T04:08:38;7.05;;;3.35;;
40471;SDS011;26174;42.908;23.800;2023-03-15T04:11:05;4.35;;;2.28;;
40471;SDS011;26174;42.908;23.800;2023-03-15T04:13:31;3.42;;;2.10;;
40471;SDS011;26174;42.908;23.800;2023-03-15T04:15:56;5.60;;;2.10;;
40471;SDS011;26174;42.908;23.800;2023-03-15T04:18:22;5.45;;;2.72;;
40471;SDS011;26174;42.908;23.800;2023-03-15T04:20:48;7.63;;;3.72;;
40471;SDS011;26174;42.908;23.800;2023-03-15T04:23:18;18.15;;;6.43;;
40471;SDS011;26174;42.908;23.800;2023-03-15T04:25:48;13.05;;;3.42;;
40471;SDS011;26174;42.908;23.800;2023-03-15T04:28:15;15.70;;;4.43;;
40471;SDS011;26174;42.908;23.800;2023-03-15T04:30:41;13.38;;;4.85;;
40471;SDS011;26174;42.908;23.800;2023-03-15T04:33:07;8.60;;;3.75;;
40471;SDS011;26174;42.908;23.800;2023-03-15T04:35:33;23.98;;;8.32;;
40471;SDS011;26174;42.908;23.800;2023-03-15T04:38:00;22.80;;;6.82;;
40471;SDS011;26174;42.908;23.800;2023-03-15T04:40:26;27.48;;;8.40;;
40471;SDS011;26174;42.908;23.800;2023-03-15T04:42:52;39.33;;;13.63;;
40471;SDS011;26174;42.908;23.800;2023-03-15T04:45:21;11.68;;;3.83;;
40471;SDS011;26174;42.908;23.800;2023-03-15T04:47:48;12.70;;;4.78;;
40471;SDS011;26174;42.908;23.800;2023-03-15T04:50:14;4.90;;;2.45;;
40471;SDS011;26174;42.908;23.800;2023-03-15T04:52:40;9.68;;;3.20;;
40471;SDS011;26174;42.908;23.800;2023-03-15T04:55:06;3.80;;;2.25;;
40471;SDS011;26174;42.908;23.800;2023-03-15T04:57:32;10.88;;;3.40;;
40471;SDS011;26174;42.908;23.800;2023-03-15T04:59:58;8.85;;;3.65;;
40471;SDS011;26174;42.908;23.800;2023-03-15T05:02:23;11.98;;;4.40;;
40471;SDS011;26174;42.908;23.800;2023-03-15T05:04:49;5.43;;;3.15;;
40471;SDS011;26174;42.908;23.800;2023-03-15T05:07:14;14.95;;;4.43;;
40471;SDS011;26174;42.908;23.800;2023-03-15T05:09:40;28.23;;;11.20;;
40471;SDS011;26174;42.908;23.800;2023-03-15T05:12:05;16.77;;;6.30;;
40471;SDS011;26174;42.908;23.800;2023-03-15T05:14:31;8.52;;;4.25;;
40471;SDS011;26174;42.908;23.800;2023-03-15T05:16:57;11.43;;;4.07;;
40471;SDS011;26174;42.908;23.800;2023-03-15T05:19:27;14.05;;;3.83;;
40471;SDS011;26174;42.908;23.800;2023-03-15T05:21:53;18.08;;;6.70;;
40471;SDS011;26174;42.908;23.800;2023-03-15T05:24:19;10.30;;;4.20;;
40471;SDS011;26174;42.908;23.800;2023-03-15T05:26:47;9.50;;;3.83;;
40471;SDS011;26174;42.908;23.800;2023-03-15T05:29:13;8.75;;;5.40;;
40471;SDS011;26174;42.908;23.800;2023-03-15T05:31:39;20.30;;;9.27;;
40471;SDS011;26174;42.908;23.800;2023-03-15T05:34:05;34.33;;;9.65;;
40471;SDS011;26174;42.908;23.800;2023-03-15T05:36:32;73.97;;;34.97;;
40471;SDS011;26174;42.908;23.800;2023-03-15T05:38:58;15.90;;;6.43;;
40471;SDS011;26174;42.908;23.800;2023-03-15T05:41:24;16.48;;;6.97;;
40471;SDS011;26174;42.908;23.800;2023-03-15T05:43:49;44.90;;;14.15;;
40471;SDS011;26174;42.908;23.800;2023-03-15T05:46:16;17.45;;;8.52;;
40471;SDS011;26174;42.908;23.800;2023-03-15T05:48:41;35.70;;;13.50;;
40471;SDS011;26174;42.908;23.800;2023-03-15T05:51:07;30.65;;;9.88;;
40471;SDS011;26174;42.908;23.800;2023-03-15T05:53:32;20.20;;;9.10;;
40471;SDS011;26174;42.908;23.800;2023-03-15T05:55:58;23.65;;;8.52;;
40471;SDS011;26174;42.908;23.800;2023-03-15T05:58:24;12.35;;;4.88;;
40471;SDS011;26174;42.908;23.800;2023-03-15T06:00:49;4.20;;;2.78;;
40471;SDS011;26174;42.908;23.800;2023-03-15T06:03:15;5.43;;;3.47;;
40471;SDS011;26174;42.908;23.800;2023-03-15T06:05:41;4.97;;;2.10;;
40471;SDS011;26174;42.908;23.800;2023-03-15T06:08:06;4.72;;;2.50;;
40471;SDS011;26174;42.908;23.800;2023-03-15T06:10:32;7.05;;;3.75;;
40471;SDS011;26174;42.908;23.800;2023-03-15T06:12:58;5.55;;;2.83;;
40471;SDS011;26174;42.908;23.800;2023-03-15T06:15:24;8.88;;;4.43;;
40471;SDS011;26174;42.908;23.800;2023-03-15T06:17:49;5.93;;;2.40;;
40471;SDS011;26174;42.908;23.800;2023-03-15T06:20:15;7.05;;;2.75;;
40471;SDS011;26174;42.908;23.800;2023-03-15T06:22:41;8.00;;;3.63;;
40471;SDS011;26174;42.908;23.800;2023-03-15T06:25:07;15.13;;;7.88;;
40471;SDS011;26174;42.908;23.800;2023-03-15T06:27:33;7.10;;;3.42;;
40471;SDS011;26174;42.908;23.800;2023-03-15T06:29:59;6.88;;;3.42;;
40471;SDS011;26174;42.908;23.800;2023-03-15T06:32:24;13.60;;;5.72;;
40471;SDS011;26174;42.908;23.800;2023-03-15T06:34:50;4.95;;;2.67;;
40471;SDS011;26174;42.908;23.800;2023-03-15T06:37:16;4.20;;;2.33;;
40471;SDS011;26174;42.908;23.800;2023-03-15T06:39:42;6.50;;;3.08;;
40471;SDS011;26174;42.908;23.800;2023-03-15T06:42:09;6.88;;;3.38;;
40471;SDS011;26174;42.908;23.800;2023-03-15T06:44:37;6.97;;;3.42;;
40471;SDS011;26174;42.908;23.800;2023-03-15T06:47:03;6.43;;;3.28;;
40471;SDS011;26174;42.908;23.800;2023-03-15T06:49:29;6.45;;;3.20;;
40471;SDS011;26174;42.908;23.800;2023-03-15T06:51:55;8.25;;;3.90;;
40471;SDS011;26174;42.908;23.800;2023-03-15T06:54:21;3.60;;;2.30;;
40471;SDS011;26174;42.908;23.800;2023-03-15T06:56:47;5.82;;;2.95;;
40471;SDS011;26174;42.908;23.800;2023-03-15T06:59:12;12.40;;;3.88;;
40471;SDS011;26174;42.908;23.800;2023-03-15T07:01:38;7.97;;;3.20;;
40471;SDS011;26174;42.908;23.800;2023-03-15T07:04:03;6.60;;;3.08;;
40471;SDS011;26174;42.908;23.800;2023-03-15T07:06:29;6.95;;;3.80;;
40471;SDS011;26174;42.908;23.800;2023-03-15T07:08:54;6.75;;;2.75;;
40471;SDS011;26174;42.908;23.800;2023-03-15T07:11:20;6.38;;;2.40;;
40471;SDS011;26174;42.908;23.800;2023-03-15T07:13:46;3.88;;;2.17;;
40471;SDS011;26174;42.908;23.800;2023-03-15T07:16:11;4.10;;;1.80;;
40471;SDS011;26174;42.908;23.800;2023-03-15T07:18:37;11.77;;;2.30;;
40471;SDS011;26174;42.908;23.800;2023-03-15T07:21:03;5.75;;;2.78;;
40471;SDS011;26174;42.908;23.800;2023-03-15T07:23:29;3.30;;;1.92;;
40471;SDS011;26174;42.908;23.800;2023-03-15T07:25:55;6.45;;;2.28;;
40471;SDS011;26174;42.908;23.800;2023-03-15T07:28:21;4.32;;;2.45;;
40471;SDS011;26174;42.908;23.800;2023-03-15T07:30:51;3.42;;;2.15;;
40471;SDS011;26174;42.908;23.800;2023-03-15T07:33:35;4.72;;;2.40;;
40471;SDS011;26174;42.908;23.800;2023-03-15T07:36:02;6.25;;;3.50;;
40471;SDS011;26174;42.908;23.800;2023-03-15T07:38:28;7.82;;;2.88;;
40471;SDS011;26174;42.908;23.800;2023-03-15T07:40:54;7.40;;;2.92;;
40471;SDS011;26174;42.908;23.800;2023-03-15T07:43:19;6.68;;;3.03;;
40471;SDS011;26174;42.908;23.800;2023-03-15T07:45:45;5.32;;;3.25;;
40471;SDS011;26174;42.908;23.800;2023-03-15T07:48:11;4.13;;;2.70;;
40471;SDS011;26174;42.908;23.800;2023-03-15T07:50:37;5.30;;;2.83;;
40471;SDS011;26174;42.908;23.800;2023-03-15T07:53:03;5.05;;;2.72;;
40471;SDS011;26174;42.908;23.800;2023-03-15T07:55:30;6.85;;;2.78;;
40471;SDS011;26174;42.908;23.800;2023-03-15T07:57:56;2.88;;;1.92;;
40471;SDS011;26174;42.908;23.800;2023-03-15T08:00:21;6.07;;;2.30;;
40471;SDS011;26174;42.908;23.800;2023-03-15T08:02:47;4.00;;;2.80;;
40471;SDS011;26174;42.908;23.800;2023-03-15T08:05:13;3.30;;;2.03;;
40471;SDS011;26174;42.908;23.800;2023-03-15T08:07:39;3.08;;;1.70;;
40471;SDS011;26174;42.908;23.800;2023-03-15T08:10:04;4.15;;;2.60;;
40471;SDS011;26174;42.908;23.800;2023-03-15T08:12:31;3.22;;;1.90;;
40471;SDS011;26174;42.908;23.800;2023-03-15T08:14:58;7.25;;;2.88;;
40471;SDS011;26174;42.908;23.800;2023-03-15T08:17:23;12.57;;;2.55;;
40471;SDS011;26174;42.908;23.800;2023-03-15T08:19:49;5.65;;;2.28;;
40471;SDS011;26174;42.908;23.800;2023-03-15T08:22:14;3.55;;;2.50;;
40471;SDS011;26174;42.908;23.800;2023-03-15T08:24:40;4.63;;;1.90;;
40471;SDS011;26174;42.908;23.800;2023-03-15T08:27:06;7.13;;;2.70;;
40471;SDS011;26174;42.908;23.800;2023-03-15T08:29:32;5.18;;;3.05;;
40471;SDS011;26174;42.908;23.800;2023-03-15T08:31:57;5.35;;;2.63;;
40471;SDS011;26174;42.908;23.800;2023-03-15T08:34:23;3.53;;;2.38;;
40471;SDS011;26174;42.908;23.800;2023-03-15T08:36:49;4.75;;;2.72;;
40471;SDS011;26174;42.908;23.800;2023-03-15T08:39:15;4.90;;;1.63;;
40471;SDS011;26174;42.908;23.800;2023-03-15T08:41:41;3.85;;;1.88;;
40471;SDS011;26174;42.908;23.800;2023-03-15T08:44:07;6.45;;;2.92;;
40471;SDS011;26174;42.908;23.800;2023-03-15T08:46:33;4.97;;;2.53;;
40471;SDS011;26174;42.908;23.800;2023-03-15T08:48:59;6.50;;;2.83;;
40471;SDS011;26174;42.908;23.800;2023-03-15T08:51:25;3.38;;;1.98;;
40471;SDS011;26174;42.908;23.800;2023-03-15T08:53:50;5.10;;;3.10;;
40471;SDS011;26174;42.908;23.800;2023-03-15T08:56:17;6.75;;;2.50;;
40471;SDS011;26174;42.908;23.800;2023-03-15T08:58:43;2.65;;;1.90;;
40471;SDS011;26174;42.908;23.800;2023-03-15T09:01:11;4.75;;;2.50;;
40471;SDS011;26174;42.908;23.800;2023-03-15T09:03:37;4.80;;;2.50;;
40471;SDS011;26174;42.908;23.800;2023-03-15T09:06:03;4.28;;;2.80;;
40471;SDS011;26174;42.908;23.800;2023-03-15T09:08:28;5.18;;;2.50;;
40471;SDS011;26174;42.908;23.800;2023-03-15T09:10:54;6.28;;;2.47;;
40471;SDS011;26174;42.908;23.800;2023-03-15T09:13:21;3.92;;;2.03;;
40471;SDS011;26174;42.908;23.800;2023-03-15T09:15:50;6.88;;;2.90;;
40471;SDS011;26174;42.908;23.800;2023-03-15T09:18:16;3.85;;;2.65;;
40471;SDS011;26174;42.908;23.800;2023-03-15T09:20:42;2.63;;;1.80;;
40471;SDS011;26174;42.908;23.800;2023-03-15T09:23:08;7.68;;;2.55;;
40471;SDS011;26174;42.908;23.800;2023-03-15T09:25:33;4.05;;;2.05;;
40471;SDS011;26174;42.908;23.800;2023-03-15T09:28:01;3.33;;;1.92;;
40471;SDS011;26174;42.908;23.800;2023-03-15T09:30:27;3.92;;;2.38;;
40471;SDS011;26174;42.908;23.800;2023-03-15T09:32:53;4.70;;;2.70;;
40471;SDS011;26174;42.908;23.800;2023-03-15T09:35:19;3.40;;;2.50;;
40471;SDS011;26174;42.908;23.800;2023-03-15T09:37:46;6.32;;;2.33;;
40471;SDS011;26174;42.908;23.800;2023-03-15T09:40:13;7.05;;;3.33;;
40471;SDS011;26174;42.908;23.800;2023-03-15T09:45:24;3.40;;;2.05;;
40471;SDS011;26174;42.908;23.800;2023-03-15T09:48:15;5.20;;;2.30;;
40471;SDS011;26174;42.908;23.800;2023-03-15T09:50:52;8.13;;;2.90;;
40471;SDS011;26174;42.908;23.800;2023-03-15T09:53:29;7.13;;;3.22;;
40471;SDS011;26174;42.908;23.800;2023-03-15T09:55:57;4.68;;;2.50;;
40471;SDS011;26174;42.908;23.800;2023-03-15T09:58:23;4.03;;;2.10;;
40471;SDS011;26174;42.908;23.800;2023-03-15T10:00:55;5.43;;;2.65;;
40471;SDS011;26174;42.908;23.800;2023-03-15T10:06:29;5.38;;;2.67;;
40471;SDS011;26174;42.908;23.800;2023-03-15T10:08:59;10.88;;;4.00;;
40471;SDS011;26174;42.908;23.800;2023-03-15T10:11:40;7.60;;;2.85;;
40471;SDS011;26174;42.908;23.800;2023-03-15T10:17:10;4.55;;;2.90;;
40471;SDS011;26174;42.908;23.800;2023-03-15T10:22:21;3.35;;;2.22;;
40471;SDS011;26174;42.908;23.800;2023-03-15T10:30:14;4.35;;;2.88;;
40471;SDS011;26174;42.908;23.800;2023-03-15T10:32:42;5.43;;;3.08;;
40471;SDS011;26174;42.908;23.800;2023-03-15T10:35:13;4.93;;;2.65;;
40471;SDS011;26174;42.908;23.800;2023-03-15T10:37:40;6.28;;;2.70;;
40471;SDS011;26174;42.908;23.800;2023-03-15T10:40:07;5.53;;;2.97;;
40471;SDS011;26174;42.908;23.800;2023-03-15T10:42:40;6.78;;;2.40;;
40471;SDS011;26174;42.908;23.800;2023-03-15T10:45:20;7.55;;;2.80;;
40471;SDS011;26174;42.908;23.800;2023-03-15T10:47:47;5.07;;;3.17;;
40471;SDS011;26174;42.908;23.800;2023-03-15T10:50:23;5.80;;;3.22;;
40471;SDS011;26174;42.908;23.800;2023-03-15T10:52:50;11.73;;;3.05;;
40471;SDS011;26174;42.908;23.800;2023-03-15T10:55:20;4.07;;;2.30;;
40471;SDS011;26174;42.908;23.800;2023-03-15T10:58:47;3.78;;;2.30;;
40471;SDS011;26174;42.908;23.800;2023-03-15T11:00:59;4.70;;;2.45;;
40471;SDS011;26174;42.908;23.800;2023-03-15T11:03:27;4.47;;;2.38;;
40471;SDS011;26174;42.908;23.800;2023-03-15T11:05:55;4.65;;;2.30;;
40471;SDS011;26174;42.908;23.800;2023-03-15T11:08:22;5.10;;;2.50;;
40471;SDS011;26174;42.908;23.800;2023-03-15T11:10:57;5.35;;;3.00;;
40471;SDS011;26174;42.908;23.800;2023-03-15T11:13:27;3.88;;;2.47;;
40471;SDS011;26174;42.908;23.800;2023-03-15T11:15:58;6.95;;;2.60;;
40471;SDS011;26174;42.908;23.800;2023-03-15T11:18:30;3.47;;;2.30;;
40471;SDS011;26174;42.908;23.800;2023-03-15T11:20:58;3.67;;;2.33;;
40471;SDS011;26174;42.908;23.800;2023-03-15T11:23:28;6.05;;;2.53;;
40471;SDS011;26174;42.908;23.800;2023-03-15T11:25:55;4.63;;;2.30;;
40471;SDS011;26174;42.908;23.800;2023-03-15T11:28:23;6.88;;;3.17;;
40471;SDS011;26174;42.908;23.800;2023-03-15T11:30:51;6.00;;;3.08;;
40471;SDS011;26174;42.908;23.800;2023-03-15T11:35:52;8.95;;;4.10;;
40471;SDS011;26174;42.908;23.800;2023-03-15T11:38:26;6.40;;;3.20;;
40471;SDS011;26174;42.908;23.800;2023-03-15T11:40:57;6.57;;;4.10;;
40471;SDS011;26174;42.908;23.800;2023-03-15T11:46:32;10.20;;;4.18;;
40471;SDS011;26174;42.908;23.800;2023-03-15T11:51:37;9.15;;;3.78;;
40471;SDS011;26174;42.908;23.800;2023-03-15T11:54:04;6.88;;;3.42;;
40471;SDS011;26174;42.908;23.800;2023-03-15T11:57:00;7.93;;;3.47;;
40471;SDS011;26174;42.908;23.800;2023-03-15T12:01:54;9.73;;;3.67;;
40471;SDS011;26174;42.908;23.800;2023-03-15T12:06:58;9.02;;;3.70;;
40471;SDS011;26174;42.908;23.800;2023-03-15T12:12:02;8.95;;;4.05;;
40471;SDS011;26174;42.908;23.800;2023-03-15T12:14:46;7.85;;;3.65;;
40471;SDS011;26174;42.908;23.800;2023-03-15T12:20:07;4.68;;;3.08;;
40471;SDS011;26174;42.908;23.800;2023-03-15T12:22:36;12.75;;;5.20;;
40471;SDS011;26174;42.908;23.800;2023-03-15T12:25:33;6.97;;;3.65;;
40471;SDS011;26174;42.908;23.800;2023-03-15T12:27:58;12.85;;;6.45;;
40471;SDS011;26174;42.908;23.800;2023-03-15T12:30:45;6.15;;;3.38;;
40471;SDS011;26174;42.908;23.800;2023-03-15T12:33:14;4.47;;;2.85;;
40471;SDS011;26174;42.908;23.800;2023-03-15T12:35:41;6.65;;;3.97;;
40471;SDS011;26174;42.908;23.800;2023-03-15T12:38:16;11.18;;;4.55;;
40471;SDS011;26174;42.908;23.800;2023-03-15T12:40:49;6.15;;;4.05;;
40471;SDS011;26174;42.908;23.800;2023-03-15T12:43:41;9.05;;;3.78;;
40471;SDS011;26174;42.908;23.800;2023-03-15T12:46:54;4.93;;;2.97;;
40471;SDS011;26174;42.908;23.800;2023-03-15T12:51:42;4.72;;;2.60;;
40471;SDS011;26174;42.908;23.800;2023-03-15T12:54:10;5.65;;;3.25;;
40471;SDS011;26174;42.908;23.800;2023-03-15T12:56:46;4.35;;;2.63;;
40471;SDS011;26174;42.908;23.800;2023-03-15T13:01:46;11.73;;;6.05;;
40471;SDS011;26174;42.908;23.800;2023-03-15T13:04:12;7.15;;;4.18;;
40471;SDS011;26174;42.908;23.800;2023-03-15T13:06:48;7.47;;;2.63;;
40471;SDS011;26174;42.908;23.800;2023-03-15T13:15:08;6.80;;;3.63;;
40471;SDS011;26174;42.908;23.800;2023-03-15T13:17:41;6.63;;;2.88;;
40471;SDS011;26174;42.908;23.800;2023-03-15T13:28:49;7.68;;;3.33;;
40471;SDS011;26174;42.908;23.800;2023-03-15T13:31:20;4.93;;;3.20;;
40471;SDS011;26174;42.908;23.800;2023-03-15T13:33:51;6.90;;;2.42;;
40471;SDS011;26174;42.908;23.800;2023-03-15T13:37:10;5.18;;;3.38;;
40471;SDS011;26174;42.908;23.800;2023-03-15T13:39:26;6.63;;;3.50;;
40471;SDS011;26174;42.908;23.800;2023-03-15T13:44:23;6.03;;;3.33;;
40471;SDS011;26174;42.908;23.800;2023-03-15T13:46:50;7.88;;;4.53;;
40471;SDS011;26174;42.908;23.800;2023-03-15T13:49:16;10.43;;;4.53;;
40471;SDS011;26174;42.908;23.800;2023-03-15T13:51:42;6.75;;;3.22;;
40471;SDS011;26174;42.908;23.800;2023-03-15T13:54:24;14.88;;;4.22;;
40471;SDS011;26174;42.908;23.800;2023-03-15T13:59:20;15.77;;;6.97;;
40471;SDS011;26174;42.908;23.800;2023-03-15T14:01:54;7.93;;;3.90;;
40471;SDS011;26174;42.908;23.800;2023-03-15T14:04:21;6.53;;;3.67;;
40471;SDS011;26174;42.908;23.800;2023-03-15T14:06:50;8.18;;;4.28;;
40471;SDS011;26174;42.908;23.800;2023-03-15T14:09:17;16.17;;;7.45;;
40471;SDS011;26174;42.908;23.800;2023-03-15T14:11:45;8.32;;;4.22;;
40471;SDS011;26174;42.908;23.800;2023-03-15T14:14:26;9.95;;;5.10;;
40471;SDS011;26174;42.908;23.800;2023-03-15T14:16:53;15.38;;;6.60;;
40471;SDS011;26174;42.908;23.800;2023-03-15T14:19:22;17.83;;;5.85;;
40471;SDS011;26174;42.908;23.800;2023-03-15T14:21:53;15.70;;;7.93;;
40471;SDS011;26174;42.908;23.800;2023-03-15T14:26:52;24.10;;;13.07;;
40471;SDS011;26174;42.908;23.800;2023-03-15T14:29:42;17.15;;;8.55;;
40471;SDS011;26174;42.908;23.800;2023-03-15T14:35:00;16.35;;;5.93;;
40471;SDS011;26174;42.908;23.800;2023-03-15T14:38:30;12.18;;;6.03;;
40471;SDS011;26174;42.908;23.800;2023-03-15T14:40:36;14.45;;;6.60;;
40471;SDS011;26174;42.908;23.800;2023-03-15T14:43:03;13.23;;;6.30;;
40471;SDS011;26174;42.908;23.800;2023-03-15T14:45:31;15.20;;;6.40;;
40471;SDS011;26174;42.908;23.800;2023-03-15T14:47:58;13.65;;;7.35;;
40471;SDS011;26174;42.908;23.800;2023-03-15T14:50:32;17.58;;;7.53;;
40471;SDS011;26174;42.908;23.800;2023-03-15T14:52:59;19.60;;;8.20;;
40471;SDS011;26174;42.908;23.800;2023-03-15T14:55:29;17.45;;;8.32;;
40471;SDS011;26174;42.908;23.800;2023-03-15T15:00:24;22.33;;;6.95;;
40471;SDS011;26174;42.908;23.800;2023-03-15T15:02:50;13.18;;;6.28;;
40471;SDS011;26174;42.908;23.800;2023-03-15T15:07:52;12.95;;;5.60;;
40471;SDS011;26174;42.908;23.800;2023-03-15T15:10:26;14.40;;;6.03;;
40471;SDS011;26174;42.908;23.800;2023-03-15T15:12:52;15.63;;;6.60;;
40471;SDS011;26174;42.908;23.800;2023-03-15T15:15:18;19.08;;;5.97;;
40471;SDS011;26174;42.908;23.800;2023-03-15T15:17:45;12.43;;;4.95;;
40471;SDS011;26174;42.908;23.800;2023-03-15T15:20:12;12.77;;;5.50;;
40471;SDS011;26174;42.908;23.800;2023-03-15T15:22:39;14.57;;;6.40;;
40471;SDS011;26174;42.908;23.800;2023-03-15T15:25:12;14.10;;;7.43;;
40471;SDS011;26174;42.908;23.800;2023-03-15T15:27:38;15.50;;;6.28;;
40471;SDS011;26174;42.908;23.800;2023-03-15T15:30:05;10.80;;;6.18;;
40471;SDS011;26174;42.908;23.800;2023-03-15T15:32:34;18.63;;;6.03;;
40471;SDS011;26174;42.908;23.800;2023-03-15T15:35:00;14.57;;;6.50;;
40471;SDS011;26174;42.908;23.800;2023-03-15T15:37:26;20.95;;;7.35;;
40471;SDS011;26174;42.908;23.800;2023-03-15T15:39:52;29.25;;;13.23;;
40471;SDS011;26174;42.908;23.800;2023-03-15T15:42:17;19.20;;;8.27;;
40471;SDS011;26174;42.908;23.800;2023-03-15T15:44:43;31.67;;;11.43;;
40471;SDS011;26174;42.908;23.800;2023-03-15T15:47:10;24.80;;;10.65;;
40471;SDS011;26174;42.908;23.800;2023-03-15T15:49:35;23.38;;;9.27;;
40471;SDS011;26174;42.908;23.800;2023-03-15T15:52:01;20.20;;;8.93;;
40471;SDS011;26174;42.908;23.800;2023-03-15T15:54:28;27.10;;;11.25;;
40471;SDS011;26174;42.908;23.800;2023-03-15T15:56:56;18.15;;;7.30;;
40471;SDS011;26174;42.908;23.800;2023-03-15T15:59:22;19.13;;;8.00;;
40471;SDS011;26174;42.908;23.800;2023-03-15T16:01:49;16.05;;;7.82;;